sensor_id;sensor_type;location;lat;lon;timestamp;P1;durP1;ratioP1;P2;durP2;ratioP2
3637;SDS011;1835;50.068;8.154;2023-02-28T00:01:41;1.53;;;1.43;;
3637;SDS011;1835;50.068;8.154;2023-02-28T00:04:09;1.90;;;1.67;;
3637;SDS011;1835;50.068;8.154;2023-02-28T00:06:37;1.00;;;1.00;;
3637;SDS011;1835;50.068;8.154;2023-02-28T00:09:05;1.40;;;1.30;;
3637;SDS011;1835;50.068;8.154;2023-02-28T00:11:33;2.60;;;1.90;;
3637;SDS011;1835;50.068;8.154;2023-02-28T00:14:05;1.20;;;1.20;;
3637;SDS011;1835;50.068;8.154;2023-02-28T00:16:33;1.33;;;1.30;;
3637;SDS011;1835;50.068;8.154;2023-02-28T00:19:01;1.47;;;1.37;;
3637;SDS011;1835;50.068;8.154;2023-02-28T00:21:29;1.57;;;1.43;;
3637;SDS011;1835;50.068;8.154;2023-02-28T00:23:57;3.70;;;1.60;;
3637;SDS011;1835;50.068;8.154;2023-02-28T00:26:25;1.40;;;1.30;;
3637;SDS011;1835;50.068;8.154;2023-02-28T00:28:53;3.43;;;1.40;;
3637;SDS011;1835;50.068;8.154;2023-02-28T00:31:23;1.60;;;1.50;;
3637;SDS011;1835;50.068;8.154;2023-02-28T00:33:51;1.53;;;1.43;;
3637;SDS011;1835;50.068;8.154;2023-02-28T00:36:19;1.70;;;1.30;;
3637;SDS011;1835;50.068;8.154;2023-02-28T00:38:48;5.73;;;1.50;;
3637;SDS011;1835;50.068;8.154;2023-02-28T00:41:16;1.20;;;1.20;;
3637;SDS011;1835;50.068;8.154;2023-02-28T00:43:44;2.77;;;1.43;;
3637;SDS011;1835;50.068;8.154;2023-02-28T00:46:12;2.57;;;1.53;;
3637;SDS011;1835;50.068;8.154;2023-02-28T00:48:41;2.70;;;1.50;;
3637;SDS011;1835;50.068;8.154;2023-02-28T00:51:09;1.30;;;1.30;;
3637;SDS011;1835;50.068;8.154;2023-02-28T00:53:37;1.60;;;1.60;;
3637;SDS011;1835;50.068;8.154;2023-02-28T00:56:05;1.83;;;1.73;;
3637;SDS011;1835;50.068;8.154;2023-02-28T00:58:34;1.27;;;1.17;;
3637;SDS011;1835;50.068;8.154;2023-02-28T01:01:02;1.17;;;1.10;;
3637;SDS011;1835;50.068;8.154;2023-02-28T01:03:31;4.80;;;1.83;;
3637;SDS011;1835;50.068;8.154;2023-02-28T01:06:00;4.70;;;1.63;;
3637;SDS011;1835;50.068;8.154;2023-02-28T01:08:28;2.40;;;1.50;;
3637;SDS011;1835;50.068;8.154;2023-02-28T01:10:56;1.80;;;1.70;;
3637;SDS011;1835;50.068;8.154;2023-02-28T01:13:24;1.50;;;1.40;;
3637;SDS011;1835;50.068;8.154;2023-02-28T01:15:54;1.60;;;1.50;;
3637;SDS011;1835;50.068;8.154;2023-02-28T01:18:23;3.33;;;1.30;;
3637;SDS011;1835;50.068;8.154;2023-02-28T01:20:51;3.43;;;1.13;;
3637;SDS011;1835;50.068;8.154;2023-02-28T01:23:21;1.83;;;1.77;;
3637;SDS011;1835;50.068;8.154;2023-02-28T01:25:50;1.87;;;1.77;;
3637;SDS011;1835;50.068;8.154;2023-02-28T01:28:19;1.30;;;1.30;;
3637;SDS011;1835;50.068;8.154;2023-02-28T01:30:48;1.50;;;1.43;;
3637;SDS011;1835;50.068;8.154;2023-02-28T01:33:16;1.50;;;1.40;;
3637;SDS011;1835;50.068;8.154;2023-02-28T01:35:44;1.57;;;1.47;;
3637;SDS011;1835;50.068;8.154;2023-02-28T01:38:12;1.83;;;1.83;;
3637;SDS011;1835;50.068;8.154;2023-02-28T01:40:50;1.70;;;1.60;;
3637;SDS011;1835;50.068;8.154;2023-02-28T01:43:22;1.57;;;1.23;;
3637;SDS011;1835;50.068;8.154;2023-02-28T01:45:53;1.60;;;1.50;;
3637;SDS011;1835;50.068;8.154;2023-02-28T01:48:23;1.67;;;1.60;;
3637;SDS011;1835;50.068;8.154;2023-02-28T01:50:54;1.63;;;1.53;;
3637;SDS011;1835;50.068;8.154;2023-02-28T01:53:29;6.40;;;1.70;;
3637;SDS011;1835;50.068;8.154;2023-02-28T01:56:04;3.37;;;2.40;;
3637;SDS011;1835;50.068;8.154;2023-02-28T01:58:34;3.33;;;2.07;;
3637;SDS011;1835;50.068;8.154;2023-02-28T02:01:04;1.70;;;1.60;;
3637;SDS011;1835;50.068;8.154;2023-02-28T02:03:32;1.90;;;1.80;;
3637;SDS011;1835;50.068;8.154;2023-02-28T02:06:02;1.60;;;1.50;;
3637;SDS011;1835;50.068;8.154;2023-02-28T02:08:31;8.40;;;1.90;;
3637;SDS011;1835;50.068;8.154;2023-02-28T02:11:00;1.93;;;1.83;;
3637;SDS011;1835;50.068;8.154;2023-02-28T02:13:33;1.40;;;1.40;;
3637;SDS011;1835;50.068;8.154;2023-02-28T02:16:17;1.40;;;1.40;;
3637;SDS011;1835;50.068;8.154;2023-02-28T02:19:04;2.40;;;2.20;;
3637;SDS011;1835;50.068;8.154;2023-02-28T02:21:54;1.40;;;1.40;;
3637;SDS011;1835;50.068;8.154;2023-02-28T02:24:59;2.50;;;2.30;;
3637;SDS011;1835;50.068;8.154;2023-02-28T02:31:27;2.83;;;1.77;;
3637;SDS011;1835;50.068;8.154;2023-02-28T02:34:27;1.90;;;1.80;;
3637;SDS011;1835;50.068;8.154;2023-02-28T02:37:23;2.57;;;1.57;;
3637;SDS011;1835;50.068;8.154;2023-02-28T02:39:59;2.33;;;2.13;;
3637;SDS011;1835;50.068;8.154;2023-02-28T02:42:36;1.97;;;1.57;;
3637;SDS011;1835;50.068;8.154;2023-02-28T02:45:12;1.33;;;1.33;;
3637;SDS011;1835;50.068;8.154;2023-02-28T02:47:45;1.87;;;1.77;;
3637;SDS011;1835;50.068;8.154;2023-02-28T02:50:15;2.53;;;1.90;;
3637;SDS011;1835;50.068;8.154;2023-02-28T02:52:48;1.80;;;1.70;;
3637;SDS011;1835;50.068;8.154;2023-02-28T02:55:21;1.70;;;1.60;;
3637;SDS011;1835;50.068;8.154;2023-02-28T02:57:51;1.60;;;1.50;;
3637;SDS011;1835;50.068;8.154;2023-02-28T03:00:23;2.57;;;2.47;;
3637;SDS011;1835;50.068;8.154;2023-02-28T03:02:58;1.80;;;1.70;;
3637;SDS011;1835;50.068;8.154;2023-02-28T03:05:30;1.80;;;1.70;;
3637;SDS011;1835;50.068;8.154;2023-02-28T03:08:03;1.73;;;1.63;;
3637;SDS011;1835;50.068;8.154;2023-02-28T03:10:33;6.03;;;1.37;;
3637;SDS011;1835;50.068;8.154;2023-02-28T03:13:14;2.63;;;1.80;;
3637;SDS011;1835;50.068;8.154;2023-02-28T03:16:10;1.87;;;1.80;;
3637;SDS011;1835;50.068;8.154;2023-02-28T03:22:19;2.47;;;1.70;;
3637;SDS011;1835;50.068;8.154;2023-02-28T03:25:10;1.47;;;1.47;;
3637;SDS011;1835;50.068;8.154;2023-02-28T03:27:49;1.70;;;1.60;;
3637;SDS011;1835;50.068;8.154;2023-02-28T03:30:29;1.80;;;1.70;;
3637;SDS011;1835;50.068;8.154;2023-02-28T03:33:06;4.77;;;1.70;;
3637;SDS011;1835;50.068;8.154;2023-02-28T03:35:40;1.50;;;1.40;;
3637;SDS011;1835;50.068;8.154;2023-02-28T03:38:16;2.03;;;1.90;;
3637;SDS011;1835;50.068;8.154;2023-02-28T03:40:50;2.07;;;1.97;;
3637;SDS011;1835;50.068;8.154;2023-02-28T03:43:24;2.10;;;1.90;;
3637;SDS011;1835;50.068;8.154;2023-02-28T03:45:57;1.80;;;1.70;;
3637;SDS011;1835;50.068;8.154;2023-02-28T03:48:32;1.33;;;1.33;;
3637;SDS011;1835;50.068;8.154;2023-02-28T03:51:06;1.83;;;1.73;;
3637;SDS011;1835;50.068;8.154;2023-02-28T03:53:39;2.03;;;1.87;;
3637;SDS011;1835;50.068;8.154;2023-02-28T03:56:13;2.20;;;2.10;;
3637;SDS011;1835;50.068;8.154;2023-02-28T03:58:47;1.40;;;1.37;;
3637;SDS011;1835;50.068;8.154;2023-02-28T04:01:22;8.40;;;2.40;;
3637;SDS011;1835;50.068;8.154;2023-02-28T04:03:54;2.30;;;1.30;;
3637;SDS011;1835;50.068;8.154;2023-02-28T04:06:22;1.87;;;1.77;;
3637;SDS011;1835;50.068;8.154;2023-02-28T04:08:53;2.93;;;1.60;;
3637;SDS011;1835;50.068;8.154;2023-02-28T04:11:22;1.80;;;1.70;;
3637;SDS011;1835;50.068;8.154;2023-02-28T04:14:00;2.80;;;1.50;;
3637;SDS011;1835;50.068;8.154;2023-02-28T04:16:29;2.03;;;1.47;;
3637;SDS011;1835;50.068;8.154;2023-02-28T04:19:01;1.60;;;1.60;;
3637;SDS011;1835;50.068;8.154;2023-02-28T04:21:31;3.20;;;1.67;;
3637;SDS011;1835;50.068;8.154;2023-02-28T04:24:03;1.40;;;1.20;;
3637;SDS011;1835;50.068;8.154;2023-02-28T04:26:33;1.90;;;1.80;;
3637;SDS011;1835;50.068;8.154;2023-02-28T04:29:04;1.17;;;1.17;;
3637;SDS011;1835;50.068;8.154;2023-02-28T04:31:33;1.80;;;1.70;;
3637;SDS011;1835;50.068;8.154;2023-02-28T04:34:01;1.77;;;1.67;;
3637;SDS011;1835;50.068;8.154;2023-02-28T04:36:30;1.87;;;1.77;;
3637;SDS011;1835;50.068;8.154;2023-02-28T04:38:58;1.40;;;1.40;;
3637;SDS011;1835;50.068;8.154;2023-02-28T04:41:27;1.23;;;1.23;;
3637;SDS011;1835;50.068;8.154;2023-02-28T04:43:58;9.33;;;1.90;;
3637;SDS011;1835;50.068;8.154;2023-02-28T04:46:26;1.70;;;1.40;;
3637;SDS011;1835;50.068;8.154;2023-02-28T04:48:54;3.20;;;1.90;;
3637;SDS011;1835;50.068;8.154;2023-02-28T04:51:22;2.57;;;1.87;;
3637;SDS011;1835;50.068;8.154;2023-02-28T04:53:50;3.97;;;1.87;;
3637;SDS011;1835;50.068;8.154;2023-02-28T04:56:19;2.33;;;2.23;;
3637;SDS011;1835;50.068;8.154;2023-02-28T04:58:49;2.80;;;2.17;;
3637;SDS011;1835;50.068;8.154;2023-02-28T05:01:20;1.77;;;1.67;;
3637;SDS011;1835;50.068;8.154;2023-02-28T05:03:52;1.87;;;1.77;;
3637;SDS011;1835;50.068;8.154;2023-02-28T05:06:22;2.80;;;1.80;;
3637;SDS011;1835;50.068;8.154;2023-02-28T05:08:53;3.03;;;1.57;;
3637;SDS011;1835;50.068;8.154;2023-02-28T05:11:21;1.10;;;1.10;;
3637;SDS011;1835;50.068;8.154;2023-02-28T05:13:57;1.23;;;1.23;;
3637;SDS011;1835;50.068;8.154;2023-02-28T05:16:25;2.73;;;2.07;;
3637;SDS011;1835;50.068;8.154;2023-02-28T05:18:53;3.53;;;1.97;;
3637;SDS011;1835;50.068;8.154;2023-02-28T05:21:26;2.43;;;2.17;;
3637;SDS011;1835;50.068;8.154;2023-02-28T05:23:58;3.73;;;1.53;;
3637;SDS011;1835;50.068;8.154;2023-02-28T05:26:28;1.30;;;1.30;;
3637;SDS011;1835;50.068;8.154;2023-02-28T05:28:59;3.17;;;1.43;;
3637;SDS011;1835;50.068;8.154;2023-02-28T05:31:27;1.70;;;1.60;;
3637;SDS011;1835;50.068;8.154;2023-02-28T05:33:55;1.50;;;1.50;;
3637;SDS011;1835;50.068;8.154;2023-02-28T05:36:24;1.57;;;1.47;;
3637;SDS011;1835;50.068;8.154;2023-02-28T05:38:52;2.03;;;1.23;;
3637;SDS011;1835;50.068;8.154;2023-02-28T05:41:20;1.73;;;1.63;;
3637;SDS011;1835;50.068;8.154;2023-02-28T05:43:48;1.67;;;1.57;;
3637;SDS011;1835;50.068;8.154;2023-02-28T05:46:18;3.13;;;2.53;;
3637;SDS011;1835;50.068;8.154;2023-02-28T05:48:47;1.60;;;1.50;;
3637;SDS011;1835;50.068;8.154;2023-02-28T05:51:16;1.60;;;1.27;;
3637;SDS011;1835;50.068;8.154;2023-02-28T05:53:44;1.57;;;1.53;;
3637;SDS011;1835;50.068;8.154;2023-02-28T05:56:14;5.93;;;1.90;;
3637;SDS011;1835;50.068;8.154;2023-02-28T05:58:42;2.83;;;1.70;;
3637;SDS011;1835;50.068;8.154;2023-02-28T06:01:22;2.50;;;1.87;;
3637;SDS011;1835;50.068;8.154;2023-02-28T06:04:01;1.87;;;1.77;;
3637;SDS011;1835;50.068;8.154;2023-02-28T06:06:30;2.40;;;2.17;;
3637;SDS011;1835;50.068;8.154;2023-02-28T06:09:02;1.73;;;1.67;;
3637;SDS011;1835;50.068;8.154;2023-02-28T06:11:31;1.53;;;1.43;;
3637;SDS011;1835;50.068;8.154;2023-02-28T06:14:17;1.67;;;1.57;;
3637;SDS011;1835;50.068;8.154;2023-02-28T06:16:48;2.37;;;2.17;;
3637;SDS011;1835;50.068;8.154;2023-02-28T06:19:16;1.50;;;1.40;;
3637;SDS011;1835;50.068;8.154;2023-02-28T06:21:45;1.77;;;1.67;;
3637;SDS011;1835;50.068;8.154;2023-02-28T06:24:16;3.70;;;1.47;;
3637;SDS011;1835;50.068;8.154;2023-02-28T06:26:44;1.67;;;1.60;;
3637;SDS011;1835;50.068;8.154;2023-02-28T06:29:13;1.63;;;1.53;;
3637;SDS011;1835;50.068;8.154;2023-02-28T06:31:43;1.87;;;1.77;;
3637;SDS011;1835;50.068;8.154;2023-02-28T06:34:13;2.03;;;1.90;;
3637;SDS011;1835;50.068;8.154;2023-02-28T06:36:46;3.00;;;2.00;;
3637;SDS011;1835;50.068;8.154;2023-02-28T06:39:18;3.97;;;2.27;;
3637;SDS011;1835;50.068;8.154;2023-02-28T06:41:46;1.47;;;1.47;;
3637;SDS011;1835;50.068;8.154;2023-02-28T06:44:21;1.60;;;1.27;;
3637;SDS011;1835;50.068;8.154;2023-02-28T06:46:50;1.70;;;1.57;;
3637;SDS011;1835;50.068;8.154;2023-02-28T06:49:20;1.57;;;1.47;;
3637;SDS011;1835;50.068;8.154;2023-02-28T06:51:48;1.00;;;1.00;;
3637;SDS011;1835;50.068;8.154;2023-02-28T06:54:16;1.73;;;1.63;;
3637;SDS011;1835;50.068;8.154;2023-02-28T06:56:44;1.50;;;1.40;;
3637;SDS011;1835;50.068;8.154;2023-02-28T06:59:13;2.50;;;1.90;;
3637;SDS011;1835;50.068;8.154;2023-02-28T07:01:41;1.37;;;1.30;;
3637;SDS011;1835;50.068;8.154;2023-02-28T07:04:09;2.13;;;1.50;;
3637;SDS011;1835;50.068;8.154;2023-02-28T07:06:38;2.00;;;1.70;;
3637;SDS011;1835;50.068;8.154;2023-02-28T07:09:06;2.40;;;1.60;;
3637;SDS011;1835;50.068;8.154;2023-02-28T07:11:35;1.93;;;1.70;;
3637;SDS011;1835;50.068;8.154;2023-02-28T07:14:03;1.60;;;1.50;;
3637;SDS011;1835;50.068;8.154;2023-02-28T07:16:31;2.80;;;1.80;;
3637;SDS011;1835;50.068;8.154;2023-02-28T07:18:59;1.47;;;1.43;;
3637;SDS011;1835;50.068;8.154;2023-02-28T07:21:27;1.10;;;1.10;;
3637;SDS011;1835;50.068;8.154;2023-02-28T07:23:57;1.30;;;1.20;;
3637;SDS011;1835;50.068;8.154;2023-02-28T07:26:25;1.40;;;1.20;;
3637;SDS011;1835;50.068;8.154;2023-02-28T07:28:53;1.47;;;1.37;;
3637;SDS011;1835;50.068;8.154;2023-02-28T07:31:21;1.03;;;1.00;;
3637;SDS011;1835;50.068;8.154;2023-02-28T07:33:49;1.00;;;1.00;;
3637;SDS011;1835;50.068;8.154;2023-02-28T07:36:17;2.00;;;1.20;;
3637;SDS011;1835;50.068;8.154;2023-02-28T07:38:46;2.07;;;1.83;;
3637;SDS011;1835;50.068;8.154;2023-02-28T07:41:18;1.80;;;1.57;;
3637;SDS011;1835;50.068;8.154;2023-02-28T07:43:48;5.93;;;1.80;;
3637;SDS011;1835;50.068;8.154;2023-02-28T07:46:16;1.63;;;1.53;;
3637;SDS011;1835;50.068;8.154;2023-02-28T07:48:46;1.87;;;1.63;;
3637;SDS011;1835;50.068;8.154;2023-02-28T07:51:14;2.30;;;1.53;;
3637;SDS011;1835;50.068;8.154;2023-02-28T07:53:42;1.50;;;1.50;;
3637;SDS011;1835;50.068;8.154;2023-02-28T07:56:10;2.20;;;1.47;;
3637;SDS011;1835;50.068;8.154;2023-02-28T07:58:39;1.90;;;1.20;;
3637;SDS011;1835;50.068;8.154;2023-02-28T08:01:08;5.00;;;1.80;;
3637;SDS011;1835;50.068;8.154;2023-02-28T08:03:38;2.60;;;1.60;;
3637;SDS011;1835;50.068;8.154;2023-02-28T08:06:07;1.60;;;1.53;;
3637;SDS011;1835;50.068;8.154;2023-02-28T08:08:43;2.73;;;1.37;;
3637;SDS011;1835;50.068;8.154;2023-02-28T08:11:16;1.77;;;1.67;;
3637;SDS011;1835;50.068;8.154;2023-02-28T08:13:50;1.40;;;1.30;;
3637;SDS011;1835;50.068;8.154;2023-02-28T08:16:18;2.40;;;1.67;;
3637;SDS011;1835;50.068;8.154;2023-02-28T08:18:48;1.80;;;1.70;;
3637;SDS011;1835;50.068;8.154;2023-02-28T08:21:18;1.73;;;1.37;;
3637;SDS011;1835;50.068;8.154;2023-02-28T08:23:47;1.87;;;1.77;;
3637;SDS011;1835;50.068;8.154;2023-02-28T08:26:15;4.20;;;1.83;;
3637;SDS011;1835;50.068;8.154;2023-02-28T08:28:44;12.33;;;2.00;;
3637;SDS011;1835;50.068;8.154;2023-02-28T08:31:14;1.63;;;1.53;;
3637;SDS011;1835;50.068;8.154;2023-02-28T08:33:44;2.00;;;1.90;;
3637;SDS011;1835;50.068;8.154;2023-02-28T08:36:14;2.57;;;1.60;;
3637;SDS011;1835;50.068;8.154;2023-02-28T08:38:46;3.10;;;1.83;;
3637;SDS011;1835;50.068;8.154;2023-02-28T08:41:14;2.40;;;1.80;;
3637;SDS011;1835;50.068;8.154;2023-02-28T08:43:42;2.10;;;1.90;;
3637;SDS011;1835;50.068;8.154;2023-02-28T08:46:11;3.50;;;2.20;;
3637;SDS011;1835;50.068;8.154;2023-02-28T08:48:41;1.90;;;1.80;;
3637;SDS011;1835;50.068;8.154;2023-02-28T08:51:12;2.53;;;1.47;;
3637;SDS011;1835;50.068;8.154;2023-02-28T08:53:44;10.07;;;2.10;;
3637;SDS011;1835;50.068;8.154;2023-02-28T08:56:15;2.50;;;2.20;;
3637;SDS011;1835;50.068;8.154;2023-02-28T08:58:44;1.80;;;1.70;;
3637;SDS011;1835;50.068;8.154;2023-02-28T09:01:15;4.33;;;2.00;;
3637;SDS011;1835;50.068;8.154;2023-02-28T09:03:45;7.30;;;1.73;;
3637;SDS011;1835;50.068;8.154;2023-02-28T09:06:16;1.83;;;1.73;;
3637;SDS011;1835;50.068;8.154;2023-02-28T09:08:45;2.23;;;2.13;;
3637;SDS011;1835;50.068;8.154;2023-02-28T09:11:13;2.60;;;2.40;;
3637;SDS011;1835;50.068;8.154;2023-02-28T09:13:42;3.00;;;1.83;;
3637;SDS011;1835;50.068;8.154;2023-02-28T09:16:10;3.20;;;2.50;;
3637;SDS011;1835;50.068;8.154;2023-02-28T09:18:43;3.50;;;2.00;;
3637;SDS011;1835;50.068;8.154;2023-02-28T09:21:13;2.40;;;2.20;;
3637;SDS011;1835;50.068;8.154;2023-02-28T09:23:43;3.03;;;2.20;;
3637;SDS011;1835;50.068;8.154;2023-02-28T09:26:13;3.03;;;2.37;;
3637;SDS011;1835;50.068;8.154;2023-02-28T09:28:42;3.17;;;2.10;;
3637;SDS011;1835;50.068;8.154;2023-02-28T09:31:12;3.33;;;2.60;;
3637;SDS011;1835;50.068;8.154;2023-02-28T09:33:41;3.90;;;2.33;;
3637;SDS011;1835;50.068;8.154;2023-02-28T09:36:11;5.73;;;2.17;;
3637;SDS011;1835;50.068;8.154;2023-02-28T09:38:39;10.90;;;2.40;;
3637;SDS011;1835;50.068;8.154;2023-02-28T09:41:10;4.13;;;3.03;;
3637;SDS011;1835;50.068;8.154;2023-02-28T09:43:43;6.30;;;2.90;;
3637;SDS011;1835;50.068;8.154;2023-02-28T09:46:19;2.60;;;2.30;;
3637;SDS011;1835;50.068;8.154;2023-02-28T09:49:05;5.13;;;3.13;;
3637;SDS011;1835;50.068;8.154;2023-02-28T09:51:42;1.93;;;1.83;;
3637;SDS011;1835;50.068;8.154;2023-02-28T09:54:18;2.70;;;2.60;;
3637;SDS011;1835;50.068;8.154;2023-02-28T09:56:49;2.50;;;2.30;;
3637;SDS011;1835;50.068;8.154;2023-02-28T09:59:25;2.67;;;2.30;;
3637;SDS011;1835;50.068;8.154;2023-02-28T10:02:12;4.70;;;2.80;;
3637;SDS011;1835;50.068;8.154;2023-02-28T10:05:08;6.10;;;2.70;;
3637;SDS011;1835;50.068;8.154;2023-02-28T10:07:45;6.80;;;2.30;;
3637;SDS011;1835;50.068;8.154;2023-02-28T10:10:26;3.77;;;3.20;;
3637;SDS011;1835;50.068;8.154;2023-02-28T10:13:01;2.63;;;2.43;;
3637;SDS011;1835;50.068;8.154;2023-02-28T10:15:32;3.30;;;2.57;;
3637;SDS011;1835;50.068;8.154;2023-02-28T10:18:03;2.80;;;2.60;;
3637;SDS011;1835;50.068;8.154;2023-02-28T10:20:40;2.40;;;2.10;;
3637;SDS011;1835;50.068;8.154;2023-02-28T10:23:11;2.20;;;2.10;;
3637;SDS011;1835;50.068;8.154;2023-02-28T10:25:48;2.27;;;2.17;;
3637;SDS011;1835;50.068;8.154;2023-02-28T10:28:24;3.63;;;2.40;;
3637;SDS011;1835;50.068;8.154;2023-02-28T10:30:59;2.53;;;2.37;;
3637;SDS011;1835;50.068;8.154;2023-02-28T10:33:28;3.00;;;2.80;;
3637;SDS011;1835;50.068;8.154;2023-02-28T10:36:00;2.37;;;2.20;;
3637;SDS011;1835;50.068;8.154;2023-02-28T10:38:32;2.43;;;2.27;;
3637;SDS011;1835;50.068;8.154;2023-02-28T10:41:03;3.20;;;2.87;;
3637;SDS011;1835;50.068;8.154;2023-02-28T10:43:33;6.73;;;3.30;;
3637;SDS011;1835;50.068;8.154;2023-02-28T10:46:03;3.40;;;2.73;;
3637;SDS011;1835;50.068;8.154;2023-02-28T10:48:42;9.37;;;3.60;;
3637;SDS011;1835;50.068;8.154;2023-02-28T10:51:16;2.93;;;2.73;;
3637;SDS011;1835;50.068;8.154;2023-02-28T10:53:49;2.60;;;2.40;;
3637;SDS011;1835;50.068;8.154;2023-02-28T10:56:27;3.80;;;3.30;;
3637;SDS011;1835;50.068;8.154;2023-02-28T10:58:57;2.57;;;2.27;;
3637;SDS011;1835;50.068;8.154;2023-02-28T11:01:37;4.93;;;2.80;;
3637;SDS011;1835;50.068;8.154;2023-02-28T11:04:17;3.80;;;2.70;;
3637;SDS011;1835;50.068;8.154;2023-02-28T11:07:00;3.30;;;2.77;;
3637;SDS011;1835;50.068;8.154;2023-02-28T11:09:32;4.90;;;3.57;;
3637;SDS011;1835;50.068;8.154;2023-02-28T11:12:03;2.93;;;2.73;;
3637;SDS011;1835;50.068;8.154;2023-02-28T11:14:35;2.90;;;2.70;;
3637;SDS011;1835;50.068;8.154;2023-02-28T11:17:19;3.23;;;2.40;;
3637;SDS011;1835;50.068;8.154;2023-02-28T11:19:50;3.23;;;2.93;;
3637;SDS011;1835;50.068;8.154;2023-02-28T11:22:23;3.50;;;2.90;;
3637;SDS011;1835;50.068;8.154;2023-02-28T11:24:55;3.67;;;2.73;;
3637;SDS011;1835;50.068;8.154;2023-02-28T11:30:24;3.97;;;3.37;;
3637;SDS011;1835;50.068;8.154;2023-02-28T11:32:58;6.00;;;3.37;;
3637;SDS011;1835;50.068;8.154;2023-02-28T11:35:28;3.03;;;2.80;;
3637;SDS011;1835;50.068;8.154;2023-02-28T11:38:04;2.80;;;2.57;;
3637;SDS011;1835;50.068;8.154;2023-02-28T11:40:38;8.40;;;2.87;;
3637;SDS011;1835;50.068;8.154;2023-02-28T11:43:16;2.93;;;2.83;;
3637;SDS011;1835;50.068;8.154;2023-02-28T11:46:07;3.73;;;3.23;;
3637;SDS011;1835;50.068;8.154;2023-02-28T11:48:47;4.80;;;3.60;;
3637;SDS011;1835;50.068;8.154;2023-02-28T11:51:27;3.30;;;2.93;;
3637;SDS011;1835;50.068;8.154;2023-02-28T11:54:11;6.60;;;3.83;;
3637;SDS011;1835;50.068;8.154;2023-02-28T11:56:57;4.20;;;3.80;;
3637;SDS011;1835;50.068;8.154;2023-02-28T11:59:42;6.67;;;3.77;;
3637;SDS011;1835;50.068;8.154;2023-02-28T12:02:24;3.80;;;2.73;;
3637;SDS011;1835;50.068;8.154;2023-02-28T12:05:02;4.90;;;3.20;;
3637;SDS011;1835;50.068;8.154;2023-02-28T12:07:47;12.07;;;3.57;;
3637;SDS011;1835;50.068;8.154;2023-02-28T12:10:28;3.73;;;3.33;;
3637;SDS011;1835;50.068;8.154;2023-02-28T12:13:02;4.20;;;2.97;;
3637;SDS011;1835;50.068;8.154;2023-02-28T12:15:51;3.80;;;3.40;;
3637;SDS011;1835;50.068;8.154;2023-02-28T12:18:59;9.53;;;3.70;;
3637;SDS011;1835;50.068;8.154;2023-02-28T12:21:48;4.70;;;2.77;;
3637;SDS011;1835;50.068;8.154;2023-02-28T12:24:46;4.53;;;3.27;;
3637;SDS011;1835;50.068;8.154;2023-02-28T12:27:50;3.27;;;2.70;;
3637;SDS011;1835;50.068;8.154;2023-02-28T12:30:21;4.60;;;4.20;;
3637;SDS011;1835;50.068;8.154;2023-02-28T12:32:52;6.50;;;3.70;;
3637;SDS011;1835;50.068;8.154;2023-02-28T12:35:26;4.80;;;3.70;;
3637;SDS011;1835;50.068;8.154;2023-02-28T12:38:02;3.70;;;3.30;;
3637;SDS011;1835;50.068;8.154;2023-02-28T12:40:41;4.87;;;4.33;;
3637;SDS011;1835;50.068;8.154;2023-02-28T12:43:15;4.57;;;3.20;;
3637;SDS011;1835;50.068;8.154;2023-02-28T12:45:46;3.70;;;3.37;;
3637;SDS011;1835;50.068;8.154;2023-02-28T12:48:20;8.00;;;3.93;;
3637;SDS011;1835;50.068;8.154;2023-02-28T12:50:55;7.60;;;3.27;;
3637;SDS011;1835;50.068;8.154;2023-02-28T12:53:25;3.07;;;2.80;;
3637;SDS011;1835;50.068;8.154;2023-02-28T12:56:03;4.27;;;3.10;;
3637;SDS011;1835;50.068;8.154;2023-02-28T12:58:45;5.53;;;3.67;;
3637;SDS011;1835;50.068;8.154;2023-02-28T13:01:24;7.53;;;3.80;;
3637;SDS011;1835;50.068;8.154;2023-02-28T13:04:27;6.97;;;3.60;;
3637;SDS011;1835;50.068;8.154;2023-02-28T13:07:36;4.90;;;3.77;;
3637;SDS011;1835;50.068;8.154;2023-02-28T13:10:38;7.27;;;3.80;;
3637;SDS011;1835;50.068;8.154;2023-02-28T13:13:13;7.77;;;4.50;;
3637;SDS011;1835;50.068;8.154;2023-02-28T13:15:58;4.17;;;3.40;;
3637;SDS011;1835;50.068;8.154;2023-02-28T13:18:32;6.17;;;4.23;;
3637;SDS011;1835;50.068;8.154;2023-02-28T13:21:04;5.90;;;3.80;;
3637;SDS011;1835;50.068;8.154;2023-02-28T13:23:38;7.37;;;3.37;;
3637;SDS011;1835;50.068;8.154;2023-02-28T13:29:51;4.80;;;3.43;;
3637;SDS011;1835;50.068;8.154;2023-02-28T13:32:32;5.20;;;4.00;;
3637;SDS011;1835;50.068;8.154;2023-02-28T13:35:12;4.20;;;3.70;;
3637;SDS011;1835;50.068;8.154;2023-02-28T13:44:13;4.43;;;3.30;;
3637;SDS011;1835;50.068;8.154;2023-02-28T13:49:53;12.70;;;3.90;;
3637;SDS011;1835;50.068;8.154;2023-02-28T13:52:22;3.97;;;3.57;;
3637;SDS011;1835;50.068;8.154;2023-02-28T13:54:56;4.60;;;3.63;;
3637;SDS011;1835;50.068;8.154;2023-02-28T13:57:55;9.60;;;3.87;;
3637;SDS011;1835;50.068;8.154;2023-02-28T14:00:37;8.70;;;5.17;;
3637;SDS011;1835;50.068;8.154;2023-02-28T14:03:26;4.47;;;4.07;;
3637;SDS011;1835;50.068;8.154;2023-02-28T14:06:23;3.63;;;3.20;;
3637;SDS011;1835;50.068;8.154;2023-02-28T14:08:56;5.50;;;3.53;;
3637;SDS011;1835;50.068;8.154;2023-02-28T14:11:31;6.33;;;3.80;;
3637;SDS011;1835;50.068;8.154;2023-02-28T14:14:02;6.23;;;3.83;;
3637;SDS011;1835;50.068;8.154;2023-02-28T14:16:39;7.77;;;4.03;;
3637;SDS011;1835;50.068;8.154;2023-02-28T14:19:11;4.30;;;3.73;;
3637;SDS011;1835;50.068;8.154;2023-02-28T14:21:53;6.03;;;3.60;;
3637;SDS011;1835;50.068;8.154;2023-02-28T14:24:50;3.80;;;3.23;;
3637;SDS011;1835;50.068;8.154;2023-02-28T14:27:42;7.23;;;3.00;;
3637;SDS011;1835;50.068;8.154;2023-02-28T14:30:29;5.97;;;3.67;;
3637;SDS011;1835;50.068;8.154;2023-02-28T14:33:32;6.43;;;3.80;;
3637;SDS011;1835;50.068;8.154;2023-02-28T14:36:16;4.97;;;4.07;;
3637;SDS011;1835;50.068;8.154;2023-02-28T14:38:51;5.80;;;3.67;;
3637;SDS011;1835;50.068;8.154;2023-02-28T14:41:23;4.83;;;3.30;;
3637;SDS011;1835;50.068;8.154;2023-02-28T14:43:59;5.10;;;4.40;;
3637;SDS011;1835;50.068;8.154;2023-02-28T14:46:33;5.03;;;3.73;;
3637;SDS011;1835;50.068;8.154;2023-02-28T14:49:05;2.93;;;2.70;;
3637;SDS011;1835;50.068;8.154;2023-02-28T14:51:43;6.20;;;3.70;;
3637;SDS011;1835;50.068;8.154;2023-02-28T14:54:15;5.47;;;3.80;;
3637;SDS011;1835;50.068;8.154;2023-02-28T14:56:52;3.70;;;3.40;;
3637;SDS011;1835;50.068;8.154;2023-02-28T14:59:23;3.50;;;3.20;;
3637;SDS011;1835;50.068;8.154;2023-02-28T15:04:54;9.13;;;4.00;;
3637;SDS011;1835;50.068;8.154;2023-02-28T15:07:24;6.60;;;3.93;;
3637;SDS011;1835;50.068;8.154;2023-02-28T15:10:08;5.33;;;3.33;;
3637;SDS011;1835;50.068;8.154;2023-02-28T15:12:40;6.70;;;3.90;;
3637;SDS011;1835;50.068;8.154;2023-02-28T15:15:15;3.87;;;3.57;;
3637;SDS011;1835;50.068;8.154;2023-02-28T15:17:45;7.10;;;3.50;;
3637;SDS011;1835;50.068;8.154;2023-02-28T15:20:17;6.03;;;3.90;;
3637;SDS011;1835;50.068;8.154;2023-02-28T15:22:46;6.27;;;3.93;;
3637;SDS011;1835;50.068;8.154;2023-02-28T15:25:19;8.70;;;3.40;;
3637;SDS011;1835;50.068;8.154;2023-02-28T15:27:50;5.17;;;3.97;;
3637;SDS011;1835;50.068;8.154;2023-02-28T15:30:21;5.87;;;3.20;;
3637;SDS011;1835;50.068;8.154;2023-02-28T15:33:07;4.10;;;3.70;;
3637;SDS011;1835;50.068;8.154;2023-02-28T15:35:46;3.43;;;3.07;;
3637;SDS011;1835;50.068;8.154;2023-02-28T15:38:16;3.80;;;3.37;;
3637;SDS011;1835;50.068;8.154;2023-02-28T15:40:51;5.03;;;3.70;;
3637;SDS011;1835;50.068;8.154;2023-02-28T15:43:24;4.90;;;3.67;;
3637;SDS011;1835;50.068;8.154;2023-02-28T15:45:58;6.07;;;3.60;;
3637;SDS011;1835;50.068;8.154;2023-02-28T15:48:29;5.17;;;3.90;;
3637;SDS011;1835;50.068;8.154;2023-02-28T15:51:02;4.40;;;4.00;;
3637;SDS011;1835;50.068;8.154;2023-02-28T15:53:36;15.83;;;5.70;;
3637;SDS011;1835;50.068;8.154;2023-02-28T15:56:16;4.50;;;3.43;;
3637;SDS011;1835;50.068;8.154;2023-02-28T15:58:52;10.13;;;5.20;;
3637;SDS011;1835;50.068;8.154;2023-02-28T16:01:24;4.57;;;3.97;;
3637;SDS011;1835;50.068;8.154;2023-02-28T16:03:55;8.37;;;5.17;;
3637;SDS011;1835;50.068;8.154;2023-02-28T16:06:35;6.90;;;4.70;;
3637;SDS011;1835;50.068;8.154;2023-02-28T16:09:09;16.53;;;5.10;;
3637;SDS011;1835;50.068;8.154;2023-02-28T16:11:44;6.43;;;4.50;;
3637;SDS011;1835;50.068;8.154;2023-02-28T16:14:17;4.20;;;3.80;;
3637;SDS011;1835;50.068;8.154;2023-02-28T16:16:50;6.27;;;4.17;;
3637;SDS011;1835;50.068;8.154;2023-02-28T16:19:20;6.50;;;4.20;;
3637;SDS011;1835;50.068;8.154;2023-02-28T16:21:49;6.90;;;3.67;;